createdAt,value
2019-03-28T00:01:15.668Z,6.13
2019-03-28T00:03:44.436Z,6.08
2019-03-28T00:06:13.164Z,6.07
2019-03-28T00:08:41.896Z,5.97
2019-03-28T00:11:10.656Z,5.88
2019-03-28T00:13:39.415Z,5.91
2019-03-28T00:16:08.157Z,5.87
2019-03-28T00:18:36.887Z,5.87
2019-03-28T00:21:05.621Z,5.98
2019-03-28T00:23:38.957Z,5.94
2019-03-28T00:26:07.686Z,5.90
2019-03-28T00:28:36.976Z,5.82
2019-03-28T00:31:05.908Z,5.88
2019-03-28T00:33:34.653Z,5.86
2019-03-28T00:36:03.411Z,5.71
2019-03-28T00:38:32.147Z,5.83
2019-03-28T00:41:00.916Z,5.84
2019-03-28T00:43:29.663Z,5.83
2019-03-28T00:45:59.381Z,5.87
2019-03-28T00:48:28.159Z,5.88
2019-03-28T00:50:56.896Z,5.82
2019-03-28T00:53:25.661Z,5.89
2019-03-28T00:55:54.431Z,5.83
2019-03-28T00:58:23.136Z,5.89
2019-03-28T01:00:51.927Z,5.83
2019-03-28T01:03:20.667Z,5.93
2019-03-28T01:05:49.431Z,5.90
2019-03-28T01:08:18.167Z,5.90
2019-03-28T01:10:47.258Z,5.86
2019-03-28T01:13:16.161Z,5.82
2019-03-28T01:15:44.907Z,5.94
2019-03-28T01:18:13.666Z,5.80
2019-03-28T01:20:42.401Z,5.79
2019-03-28T01:23:11.181Z,5.87
2019-03-28T01:25:39.934Z,5.93
2019-03-28T01:28:08.693Z,5.98
2019-03-28T01:30:37.513Z,6.01
2019-03-28T01:33:06.253Z,5.98
2019-03-28T01:35:35.036Z,5.92
2019-03-28T01:38:04.072Z,5.92
2019-03-28T01:40:32.842Z,5.92
2019-03-28T01:43:01.602Z,5.95
2019-03-28T01:45:30.338Z,5.97
2019-03-28T01:47:59.125Z,5.91
2019-03-28T01:50:27.866Z,5.95
2019-03-28T01:52:56.605Z,5.92
2019-03-28T01:55:25.374Z,5.85
2019-03-28T01:57:54.163Z,5.95
2019-03-28T02:00:22.927Z,5.91
2019-03-28T02:02:51.648Z,5.85
2019-03-28T02:05:20.391Z,5.90
2019-03-28T02:07:49.152Z,5.81
2019-03-28T02:10:17.893Z,5.85
2019-03-28T02:12:46.681Z,5.90
2019-03-28T02:15:15.426Z,5.85
2019-03-28T02:17:44.179Z,5.96
2019-03-28T02:20:13.156Z,5.82
2019-03-28T02:22:41.901Z,5.81
2019-03-28T02:25:10.681Z,5.81
2019-03-28T02:27:39.426Z,5.83
2019-03-28T02:30:08.681Z,5.81
2019-03-28T02:32:37.453Z,5.75
2019-03-28T02:35:09.953Z,5.81
2019-03-28T02:37:38.718Z,5.84
2019-03-28T02:40:08.000Z,5.77
2019-03-28T02:42:36.749Z,5.78
2019-03-28T02:45:07.726Z,5.80
2019-03-28T02:47:36.476Z,5.74
2019-03-28T02:50:06.983Z,5.77
2019-03-28T02:52:38.111Z,5.82
2019-03-28T02:55:07.918Z,5.84
2019-03-28T02:57:41.752Z,5.77
2019-03-28T03:00:08.449Z,5.74
2019-03-28T03:02:38.212Z,5.66
2019-03-28T03:05:08.842Z,5.74
2019-03-28T03:07:39.221Z,5.79
2019-03-28T03:10:08.464Z,5.74
2019-03-28T03:12:39.247Z,5.72
2019-03-28T03:15:08.842Z,5.85
2019-03-28T03:17:37.577Z,5.75
2019-03-28T03:20:08.669Z,5.71
2019-03-28T03:22:38.530Z,5.77
2019-03-28T03:25:07.979Z,5.76
2019-03-28T03:27:36.752Z,5.73
2019-03-28T03:30:08.470Z,5.78
2019-03-28T03:32:37.287Z,5.72
2019-03-28T03:35:06.868Z,5.78
2019-03-28T03:37:35.668Z,5.77
2019-03-28T03:40:08.868Z,5.84
2019-03-28T03:42:37.616Z,5.77
2019-03-28T03:45:09.046Z,5.77
2019-03-28T03:47:38.308Z,5.71
2019-03-28T03:50:08.467Z,5.63
2019-03-28T03:52:37.227Z,5.65
2019-03-28T03:55:07.187Z,5.69
2019-03-28T03:57:35.946Z,5.64
2019-03-28T04:00:09.046Z,5.69
2019-03-28T04:02:37.969Z,5.59
2019-03-28T04:05:07.741Z,5.65
2019-03-28T04:07:36.470Z,5.59
2019-03-28T04:10:07.222Z,5.70
2019-03-28T04:12:36.012Z,5.64
2019-03-28T04:15:07.148Z,5.62
2019-03-28T04:17:35.892Z,5.62
2019-03-28T04:20:07.187Z,5.69
2019-03-28T04:22:36.984Z,5.71
2019-03-28T04:25:07.990Z,5.79
2019-03-28T04:27:36.766Z,5.82
2019-03-28T04:30:07.869Z,5.88
2019-03-28T04:32:36.631Z,5.83
2019-03-28T04:35:08.243Z,5.83
2019-03-28T04:37:36.994Z,5.85
2019-03-28T04:40:08.503Z,5.80
2019-03-28T04:42:39.247Z,5.85
2019-03-28T04:45:09.148Z,5.85
2019-03-28T04:47:38.206Z,5.78
2019-03-28T04:50:07.647Z,5.85
2019-03-28T04:52:36.486Z,5.95
2019-03-28T04:55:06.567Z,5.95
2019-03-28T04:57:35.307Z,5.83
2019-03-28T05:00:06.350Z,5.80
2019-03-28T05:02:36.527Z,5.74
2019-03-28T05:05:06.807Z,5.79
2019-03-28T05:07:35.568Z,5.82
2019-03-28T05:10:06.468Z,5.76
2019-03-28T05:12:35.188Z,5.79
2019-03-28T05:15:06.087Z,5.77
2019-03-28T05:17:35.067Z,5.76
2019-03-28T05:20:04.826Z,5.85
2019-03-28T05:22:33.628Z,5.85
2019-03-28T05:25:02.411Z,5.82
2019-03-28T05:27:31.127Z,5.90
2019-03-28T05:29:59.949Z,5.89
2019-03-28T05:32:28.706Z,5.90
2019-03-28T05:34:57.486Z,5.95
2019-03-28T05:37:26.249Z,5.97
2019-03-28T05:39:55.006Z,5.99
2019-03-28T05:42:23.808Z,5.98
2019-03-28T05:44:52.567Z,6.02
2019-03-28T05:47:22.179Z,6.05
2019-03-28T05:49:51.260Z,6.10
2019-03-28T05:52:20.006Z,6.10
2019-03-28T05:54:48.775Z,6.20
2019-03-28T05:57:17.566Z,6.18
2019-03-28T05:59:46.331Z,6.10
2019-03-28T06:02:15.147Z,6.24
2019-03-28T06:04:43.966Z,6.27
2019-03-28T06:07:12.734Z,6.37
2019-03-28T06:09:41.487Z,6.34
2019-03-28T06:12:10.289Z,6.40
2019-03-28T06:14:39.048Z,6.49
2019-03-28T06:17:07.806Z,6.45
2019-03-28T06:19:36.606Z,6.48
2019-03-28T06:22:05.389Z,6.49
2019-03-28T06:24:34.203Z,6.63
2019-03-28T06:27:03.007Z,6.76
2019-03-28T06:29:31.761Z,6.82
2019-03-28T06:32:00.529Z,6.73
2019-03-28T06:34:29.365Z,6.72
2019-03-28T06:36:58.127Z,6.70
2019-03-28T06:39:26.887Z,6.66
2019-03-28T06:41:55.730Z,6.80
2019-03-28T06:44:25.840Z,6.77
2019-03-28T06:46:55.261Z,6.80
2019-03-28T06:49:24.186Z,6.95
2019-03-28T06:51:52.966Z,6.95
2019-03-28T06:54:24.389Z,6.99
2019-03-28T06:56:53.386Z,6.88
2019-03-28T06:59:22.127Z,6.93
2019-03-28T07:01:51.965Z,6.93
2019-03-28T07:04:21.311Z,6.97
2019-03-28T07:06:50.066Z,6.90
2019-03-28T07:09:18.873Z,6.98
2019-03-28T07:11:47.670Z,6.95
2019-03-28T07:14:16.446Z,7.10
2019-03-28T07:16:47.496Z,7.14
2019-03-28T07:19:16.266Z,7.13
2019-03-28T07:21:45.027Z,7.20
2019-03-28T07:24:13.829Z,7.00
2019-03-28T07:26:42.571Z,6.80
2019-03-28T07:29:11.346Z,6.83
2019-03-28T07:31:41.529Z,6.88
2019-03-28T07:34:13.377Z,6.93
2019-03-28T07:36:40.830Z,6.81
2019-03-28T07:39:09.606Z,6.83
2019-03-28T07:41:38.471Z,6.84
2019-03-28T07:44:07.227Z,6.88
2019-03-28T07:46:36.046Z,6.82
2019-03-28T07:49:04.898Z,6.84
2019-03-28T07:51:33.646Z,6.90
2019-03-28T07:54:02.446Z,7.03
2019-03-28T07:56:31.224Z,7.09
2019-03-28T07:59:00.026Z,7.36
2019-03-28T08:01:28.787Z,7.25
2019-03-28T08:03:57.546Z,7.21
2019-03-28T08:06:26.353Z,7.09
2019-03-28T08:08:55.088Z,7.43
2019-03-28T08:11:24.025Z,7.39
2019-03-28T08:13:52.907Z,7.44
2019-03-28T08:16:21.683Z,7.80
2019-03-28T08:18:50.446Z,7.84
2019-03-28T08:21:19.210Z,7.69
2019-03-28T08:23:48.006Z,7.48
2019-03-28T08:26:16.746Z,7.50
2019-03-28T08:28:45.486Z,7.55
2019-03-28T08:31:14.934Z,7.91
2019-03-28T08:33:44.686Z,7.87
2019-03-28T08:36:15.307Z,8.09
2019-03-28T08:38:45.567Z,8.18
2019-03-28T08:41:14.306Z,8.29
2019-03-28T08:43:43.106Z,8.23
2019-03-28T08:46:11.866Z,8.19
2019-03-28T08:48:40.686Z,8.06
2019-03-28T08:51:09.445Z,7.77
2019-03-28T08:53:38.208Z,7.92
2019-03-28T08:56:07.006Z,8.08
2019-03-28T08:58:38.132Z,8.05
2019-03-28T09:01:06.867Z,7.96
2019-03-28T09:03:35.646Z,7.68
2019-03-28T09:06:04.432Z,7.57
2019-03-28T09:08:33.247Z,7.66
2019-03-28T09:11:02.007Z,7.68
2019-03-28T09:13:30.808Z,7.88
2019-03-28T09:15:59.568Z,7.68
2019-03-28T09:18:29.228Z,7.59
2019-03-28T09:20:58.031Z,7.61
2019-03-28T09:23:26.786Z,7.80
2019-03-28T09:25:55.606Z,8.00
2019-03-28T09:28:26.706Z,8.14
2019-03-28T09:30:55.610Z,8.14
2019-03-28T09:33:24.886Z,7.81
2019-03-28T09:35:53.646Z,7.82
2019-03-28T09:38:22.426Z,7.93
2019-03-28T09:40:51.207Z,8.13
2019-03-28T09:43:20.007Z,8.02
2019-03-28T09:45:50.206Z,8.19
2019-03-28T09:48:18.967Z,8.28
2019-03-28T09:50:47.746Z,8.24
2019-03-28T09:53:16.513Z,8.22
2019-03-28T09:55:45.316Z,8.36
2019-03-28T09:58:14.087Z,8.54
2019-03-28T10:00:42.829Z,8.79
2019-03-28T10:03:11.589Z,8.93
2019-03-28T10:05:40.465Z,9.12
2019-03-28T10:08:09.247Z,9.21
2019-03-28T10:10:37.988Z,9.24
2019-03-28T10:13:06.747Z,9.30
2019-03-28T10:15:37.131Z,9.40
2019-03-28T10:18:05.988Z,9.45
2019-03-28T10:20:34.809Z,9.53
2019-03-28T10:23:03.567Z,9.68
2019-03-28T10:25:32.307Z,9.71
2019-03-28T10:28:01.086Z,9.75
2019-03-28T10:30:35.711Z,9.78
2019-03-28T10:33:04.548Z,9.87
2019-03-28T10:35:33.306Z,10.04
2019-03-28T10:38:02.046Z,10.37
2019-03-28T10:40:30.827Z,10.75
2019-03-28T10:42:59.566Z,11.10
2019-03-28T10:45:28.366Z,11.46
2019-03-28T10:47:57.138Z,11.71
2019-03-28T10:50:39.922Z,11.79
2019-03-28T10:52:56.427Z,11.97
2019-03-28T10:55:25.226Z,12.21
2019-03-28T10:57:54.035Z,12.26
2019-03-28T11:00:24.613Z,12.20
2019-03-28T11:02:53.989Z,12.00
2019-03-28T11:05:22.848Z,11.74
2019-03-28T11:07:51.643Z,11.50
2019-03-28T11:10:20.426Z,11.10
2019-03-28T11:12:49.226Z,11.23
2019-03-28T11:15:18.071Z,11.21
2019-03-28T11:17:47.596Z,11.22
2019-03-28T11:20:16.751Z,11.26
2019-03-28T11:22:45.591Z,11.35
2019-03-28T11:25:14.493Z,11.33
2019-03-28T11:27:43.286Z,11.44
2019-03-28T11:30:13.146Z,11.51
2019-03-28T11:32:41.907Z,11.57
2019-03-28T11:35:10.689Z,11.70
2019-03-28T11:37:39.528Z,11.80
2019-03-28T11:40:09.746Z,12.43
2019-03-28T11:42:38.506Z,13.69
2019-03-28T11:45:09.381Z,14.87
2019-03-28T11:47:38.627Z,16.10
2019-03-28T11:50:09.585Z,17.42
2019-03-28T11:52:38.426Z,18.26
2019-03-28T11:55:08.088Z,18.73
2019-03-28T11:57:37.848Z,19.07
2019-03-28T12:00:09.868Z,19.63
2019-03-28T12:02:38.647Z,19.56
2019-03-28T12:05:07.768Z,19.82
2019-03-28T12:07:36.526Z,19.72
2019-03-28T12:10:10.489Z,19.34
2019-03-28T12:12:38.506Z,18.91
2019-03-28T12:15:08.371Z,18.61
2019-03-28T12:17:37.166Z,17.68
2019-03-28T12:20:07.931Z,17.96
2019-03-28T12:22:36.687Z,18.73
2019-03-28T12:25:07.887Z,18.71
2019-03-28T12:27:36.706Z,18.51
2019-03-28T12:30:10.927Z,18.42
2019-03-28T12:32:39.687Z,17.89
2019-03-28T12:35:09.286Z,18.19
2019-03-28T12:37:38.047Z,18.01
2019-03-28T12:40:10.768Z,17.08
2019-03-28T12:42:39.579Z,16.36
2019-03-28T12:45:10.607Z,15.83
2019-03-28T12:47:43.167Z,15.34
2019-03-28T12:50:14.355Z,14.91
2019-03-28T12:52:43.110Z,14.35
2019-03-28T12:55:13.931Z,13.88
2019-03-28T12:57:42.666Z,13.40
2019-03-28T13:00:13.408Z,13.39
2019-03-28T13:02:42.249Z,13.35
2019-03-28T13:05:11.654Z,13.30
2019-03-28T13:07:40.728Z,13.31
2019-03-28T13:10:11.571Z,13.39
2019-03-28T13:12:40.348Z,13.46
2019-03-28T13:15:09.516Z,13.63
2019-03-28T13:17:38.346Z,13.80
2019-03-28T13:20:09.134Z,14.01
2019-03-28T13:22:37.873Z,13.89
2019-03-28T13:25:07.924Z,14.07
2019-03-28T13:27:37.063Z,14.13
2019-03-28T13:30:13.607Z,14.19
2019-03-28T13:32:42.652Z,14.19
2019-03-28T13:35:11.706Z,14.22
2019-03-28T13:37:40.506Z,14.24
2019-03-28T13:40:09.690Z,14.38
2019-03-28T13:42:39.080Z,14.62
2019-03-28T13:45:10.208Z,15.48
2019-03-28T13:47:39.067Z,16.69
2019-03-28T13:50:09.926Z,17.81
2019-03-28T13:52:38.687Z,18.16
2019-03-28T13:55:08.350Z,18.29
2019-03-28T13:57:37.171Z,18.82
2019-03-28T14:00:08.239Z,19.50
2019-03-28T14:02:37.186Z,20.19
2019-03-28T14:05:07.448Z,20.25
2019-03-28T14:07:36.628Z,20.32
2019-03-28T14:10:06.772Z,20.65
2019-03-28T14:12:35.608Z,20.76
2019-03-28T14:15:05.168Z,21.20
2019-03-28T14:17:35.082Z,21.49
2019-03-28T14:20:05.431Z,21.07
2019-03-28T14:22:34.406Z,19.70
2019-03-28T14:25:03.231Z,17.94
2019-03-28T14:27:31.972Z,16.95
2019-03-28T14:30:00.706Z,16.30
2019-03-28T14:32:29.463Z,16.01
2019-03-28T14:34:58.226Z,15.71
2019-03-28T14:37:40.839Z,15.55
2019-03-28T14:40:14.562Z,15.14
2019-03-28T14:42:43.637Z,15.08
2019-03-28T14:45:12.407Z,14.92
2019-03-28T14:47:41.140Z,14.93
2019-03-28T14:50:10.601Z,14.89
2019-03-28T14:52:39.387Z,14.89
2019-03-28T14:55:08.308Z,15.11
2019-03-28T14:57:37.155Z,15.42
2019-03-28T15:00:15.017Z,15.76
2019-03-28T15:02:55.213Z,15.92
2019-03-28T15:05:37.046Z,15.59
2019-03-28T15:08:12.949Z,15.20
2019-03-28T15:10:51.158Z,15.21
2019-03-28T15:13:21.848Z,15.06
2019-03-28T15:15:52.193Z,14.87
2019-03-28T15:18:33.999Z,15.11
2019-03-28T15:21:16.959Z,15.25
2019-03-28T15:23:46.600Z,15.76
2019-03-28T15:26:15.390Z,15.89
2019-03-28T15:28:44.146Z,15.96
2019-03-28T15:31:12.946Z,15.79
2019-03-28T15:33:41.726Z,15.09
2019-03-28T15:36:10.526Z,14.17
2019-03-28T15:38:39.934Z,13.56
2019-03-28T15:41:09.087Z,13.64
2019-03-28T15:43:40.327Z,13.60
2019-03-28T15:46:09.086Z,13.47
2019-03-28T15:48:37.885Z,13.33
2019-03-28T15:51:06.685Z,13.27
2019-03-28T15:53:35.506Z,13.17
2019-03-28T15:56:04.306Z,13.10
2019-03-28T15:58:33.108Z,13.12
2019-03-28T16:01:01.946Z,13.10
2019-03-28T16:03:30.852Z,12.98
2019-03-28T16:05:59.606Z,12.93
2019-03-28T16:08:28.431Z,12.90
2019-03-28T16:10:57.189Z,12.95
2019-03-28T16:13:25.946Z,12.89
2019-03-28T16:15:54.846Z,12.85
2019-03-28T16:18:23.606Z,12.92
2019-03-28T16:20:53.489Z,12.88
2019-03-28T16:23:22.466Z,12.93
2019-03-28T16:25:51.227Z,12.87
2019-03-28T16:28:20.083Z,12.78
2019-03-28T16:30:48.986Z,12.73
2019-03-28T16:33:17.766Z,12.69
2019-03-28T16:35:46.527Z,12.58
2019-03-28T16:38:15.510Z,12.57
2019-03-28T16:40:44.336Z,12.49
2019-03-28T16:43:17.055Z,12.54
2019-03-28T16:45:49.193Z,12.47
2019-03-28T16:48:27.311Z,12.35
2019-03-28T16:51:10.354Z,12.35
2019-03-28T16:53:40.215Z,12.34
2019-03-28T16:56:10.451Z,12.30
2019-03-28T16:58:40.571Z,12.28
2019-03-28T17:01:12.743Z,12.20
2019-03-28T17:03:41.987Z,12.25
2019-03-28T17:06:11.266Z,12.19
2019-03-28T17:08:43.570Z,12.09
2019-03-28T17:11:12.546Z,12.08
2019-03-28T17:13:41.437Z,12.09
2019-03-28T17:16:10.207Z,12.05
2019-03-28T17:18:38.965Z,11.95
2019-03-28T17:21:08.028Z,11.93
2019-03-28T17:23:36.813Z,11.90
2019-03-28T17:26:06.247Z,11.90
2019-03-28T17:28:35.027Z,11.78
2019-03-28T17:31:03.908Z,11.77
2019-03-28T17:33:32.667Z,11.74
2019-03-28T17:36:02.066Z,11.66
2019-03-28T17:38:30.855Z,11.57
2019-03-28T17:40:59.609Z,11.48
2019-03-28T17:43:38.115Z,11.44
2019-03-28T17:46:07.007Z,11.36
2019-03-28T17:48:35.779Z,11.26
2019-03-28T17:51:04.788Z,11.20
2019-03-28T17:53:33.628Z,11.13
2019-03-28T17:56:02.386Z,11.07
2019-03-28T17:58:31.736Z,10.91
2019-03-28T18:01:00.579Z,10.82
2019-03-28T18:03:31.406Z,10.77
2019-03-28T18:05:59.868Z,10.64
2019-03-28T18:08:28.666Z,10.60
2019-03-28T18:11:00.239Z,10.71
2019-03-28T18:13:28.146Z,10.49
2019-03-28T18:15:57.145Z,10.30
2019-03-28T18:18:25.927Z,10.08
2019-03-28T18:20:55.142Z,10.00
2019-03-28T18:23:23.972Z,9.17
2019-03-28T18:25:52.947Z,8.46
2019-03-28T18:28:21.928Z,8.20
2019-03-28T18:30:50.686Z,7.68
2019-03-28T18:33:19.607Z,7.53
2019-03-28T18:35:48.429Z,7.72
2019-03-28T18:38:17.246Z,7.70
2019-03-28T18:40:46.866Z,7.92
2019-03-28T18:43:15.848Z,8.18
2019-03-28T18:45:44.648Z,8.08
2019-03-28T18:48:27.394Z,7.64
2019-03-28T18:50:45.606Z,7.44
2019-03-28T18:53:16.070Z,7.31
2019-03-28T18:55:44.998Z,7.30
2019-03-28T18:58:13.926Z,7.29
2019-03-28T19:00:42.848Z,7.43
2019-03-28T19:03:11.689Z,7.38
2019-03-28T19:05:40.666Z,7.24
2019-03-28T19:08:09.506Z,7.15
2019-03-28T19:10:39.827Z,7.02
2019-03-28T19:13:08.888Z,6.79
2019-03-28T19:15:37.827Z,6.71
2019-03-28T19:18:06.786Z,6.82
2019-03-28T19:20:35.993Z,6.50
2019-03-28T19:23:07.249Z,6.47
2019-03-28T19:25:35.835Z,6.47
2019-03-28T19:28:07.510Z,6.43
2019-03-28T19:30:35.752Z,6.50
2019-03-28T19:33:06.864Z,6.59
2019-03-28T19:35:36.946Z,6.52
2019-03-28T19:38:08.930Z,6.41
2019-03-28T19:40:36.747Z,6.32
2019-03-28T19:43:19.307Z,5.81
2019-03-28T19:45:37.566Z,5.48
2019-03-28T19:48:06.987Z,5.34
2019-03-28T19:50:36.127Z,5.37
2019-03-28T19:53:05.466Z,5.86
2019-03-28T19:55:34.286Z,5.94
2019-03-28T19:58:03.356Z,5.89
2019-03-28T20:00:32.169Z,5.81
2019-03-28T20:03:02.387Z,5.50
2019-03-28T20:05:31.606Z,5.55
2019-03-28T20:08:14.388Z,5.47
2019-03-28T20:10:30.987Z,5.25
2019-03-28T20:12:59.846Z,5.25
2019-03-28T20:15:28.875Z,5.15
2019-03-28T20:17:57.604Z,5.14
2019-03-28T20:20:26.486Z,5.04
2019-03-28T20:22:56.160Z,5.05
2019-03-28T20:25:25.649Z,4.98
2019-03-28T20:27:54.446Z,4.79
2019-03-28T20:30:23.584Z,4.58
2019-03-28T20:32:52.545Z,4.46
2019-03-28T20:35:22.018Z,4.21
2019-03-28T20:37:51.087Z,4.28
2019-03-28T20:40:20.166Z,4.34
2019-03-28T20:42:48.943Z,4.36
2019-03-28T20:45:19.529Z,4.31
2019-03-28T20:47:48.305Z,4.27
2019-03-28T20:50:17.889Z,4.14
2019-03-28T20:52:46.659Z,3.74
2019-03-28T20:55:16.414Z,3.85
2019-03-28T20:57:45.159Z,3.98
2019-03-28T21:00:14.747Z,3.98
2019-03-28T21:02:45.086Z,4.06
2019-03-28T21:05:14.686Z,4.07
2019-03-28T21:07:43.619Z,3.88
2019-03-28T21:10:15.668Z,3.92
2019-03-28T21:12:44.586Z,3.89
2019-03-28T21:15:13.366Z,3.80
2019-03-28T21:17:42.206Z,3.69
2019-03-28T21:20:11.207Z,3.58
2019-03-28T21:22:39.993Z,3.39
2019-03-28T21:25:08.886Z,3.54
2019-03-28T21:27:37.645Z,3.33
2019-03-28T21:30:07.806Z,3.51
2019-03-28T21:32:36.805Z,3.68
2019-03-28T21:35:08.770Z,3.66
2019-03-28T21:37:37.566Z,3.63
2019-03-28T21:40:07.132Z,3.74
2019-03-28T21:42:37.147Z,3.61
2019-03-28T21:45:06.867Z,3.54
2019-03-28T21:47:35.632Z,3.60
2019-03-28T21:50:08.645Z,3.55
2019-03-28T21:52:37.447Z,3.28
2019-03-28T21:55:07.866Z,3.26
2019-03-28T21:57:38.141Z,3.01
2019-03-28T22:00:11.011Z,2.78
2019-03-28T22:02:39.746Z,2.89
2019-03-28T22:05:09.249Z,3.08
2019-03-28T22:07:38.046Z,3.11
2019-03-28T22:10:09.096Z,2.91
2019-03-28T22:12:38.026Z,2.90
2019-03-28T22:15:08.228Z,2.87
2019-03-28T22:17:37.387Z,2.88
2019-03-28T22:20:07.811Z,2.71
2019-03-28T22:22:36.606Z,2.65
2019-03-28T22:25:07.173Z,2.62
2019-03-28T22:27:35.910Z,2.63
2019-03-28T22:30:05.411Z,2.55
2019-03-28T22:32:34.189Z,2.51
2019-03-28T22:35:02.929Z,2.55
2019-03-28T22:37:31.747Z,2.30
2019-03-28T22:40:00.551Z,2.38
2019-03-28T22:42:29.324Z,2.41
2019-03-28T22:44:58.154Z,2.39
2019-03-28T22:47:26.916Z,2.27
2019-03-28T22:49:55.651Z,2.15
2019-03-28T22:52:24.529Z,1.96
2019-03-28T22:54:53.309Z,2.02
2019-03-28T22:57:22.046Z,1.83
2019-03-28T22:59:50.862Z,1.92
2019-03-28T23:02:19.587Z,2.05
2019-03-28T23:04:48.348Z,2.19
2019-03-28T23:07:17.148Z,1.94
2019-03-28T23:09:45.910Z,1.76
2019-03-28T23:12:14.680Z,1.85
2019-03-28T23:14:44.190Z,2.08
2019-03-28T23:17:13.575Z,2.09
2019-03-28T23:19:42.354Z,1.82
2019-03-28T23:22:11.196Z,1.75
2019-03-28T23:24:40.549Z,1.73
2019-03-28T23:27:09.325Z,2.04
2019-03-28T23:29:38.130Z,2.11
2019-03-28T23:32:06.871Z,2.18
2019-03-28T23:34:35.629Z,1.96
2019-03-28T23:37:04.429Z,1.79
2019-03-28T23:39:33.195Z,1.77
2019-03-28T23:42:01.970Z,1.61
2019-03-28T23:44:30.777Z,1.49
2019-03-28T23:46:59.530Z,1.36
2019-03-28T23:49:28.281Z,1.32
2019-03-28T23:51:57.090Z,1.03
2019-03-28T23:54:26.903Z,0.87
2019-03-28T23:56:55.788Z,0.87
2019-03-28T23:59:24.598Z,0.70
